PROFILE

 METAR AND TAF INFORMATION
ADDS - METARS form results

(1603 UTC 20 June 2019)
http://aviationweather.gov/metar/data/
 
YPDN 201530Z AUTO 15005KT 9999 // NCD 20/16 Q1015
TAF YPDN 201107Z 2012/2118 35005KT 9999 FU NSC FM201300 14008KT CAVOK FM210000 11014KT CAVOK FM210700 35006KT 9999 FU NSC FM211200 14007KT CAVOK 

 AIRPORT MAP

 RUNWAY INFORMATION
Runway 11 Runway length 11004 ft Runway width 197 ft
Runway elevation 96 ft Runway displaced threshold 0 ft Runway heading 109
Runway 29 Runway length 11004 ft Runway width 197 ft
Runway elevation 81 ft Runway displaced threshold 0 ft Runway heading 289
Runway 18 Runway length 5000 ft Runway width 98 ft
Runway elevation 96 ft Runway displaced threshold 0 ft Runway heading 180
Runway 36 Runway length 5000 ft Runway width 98 ft
Runway elevation 91 ft Runway displaced threshold 0 ft Runway heading 360

 AIRPORT FREQUENCIES
Type A/D Name APP Frequency 125.2 MHZ
Type ARTC Name BRISBANE C Frequency 118.15 MHZ
Type ATIS Name ATIS Frequency 112.6 MHZ
Type CLD Name CLNC DEL Frequency 126.8 MHZ
Type DEP Name DEP Frequency 123 MHZ
Type GND Name GND Frequency 121.8 MHZ
Type MISC Name RAAF AIR O Frequency 897.4 MHZ
Type TWR Name TWR Frequency 133.1 MHZ

 AIRPORT NEAR NAVIGATION AIDS
Type NDB Name Bagot Frequency 308 KHZ
Type TACAN Name Darwin Frequency 113700 KHZ
Type VOR-DME Name Darwin Frequency 112600 KHZ
Type NDB Name Darwin Frequency 344 KHZ
Type NDB Name Howard Springs Frequency 257 KHZ